sensor_id;sensor_type;location;lat;lon;timestamp;pressure;altitude;pressure_sealevel;temperature;humidity
11053;BME280;55230;42.602;23.470;2023-02-14T00:00:03;94866.75;;;0.52;98.30
11053;BME280;55230;42.602;23.470;2023-02-14T00:02:30;94848.31;;;0.21;98.22
11053;BME280;55230;42.602;23.470;2023-02-14T00:04:57;94837.91;;;0.13;98.15
11053;BME280;55230;42.602;23.470;2023-02-14T00:07:24;94830.47;;;0.18;98.27
11053;BME280;55230;42.602;23.470;2023-02-14T00:09:50;94787.66;;;0.00;97.98
11053;BME280;55230;42.602;23.470;2023-02-14T00:12:18;94869.13;;;0.57;98.29
11053;BME280;55230;42.602;23.470;2023-02-14T00:14:45;94856.72;;;0.61;97.89
11053;BME280;55230;42.602;23.470;2023-02-14T00:17:29;94888.41;;;0.54;97.81
11053;BME280;55230;42.602;23.470;2023-02-14T00:19:56;94869.84;;;0.54;97.76
11053;BME280;55230;42.602;23.470;2023-02-14T00:22:23;94762.34;;;-0.16;97.38
11053;BME280;55230;42.602;23.470;2023-02-14T00:24:50;94740.78;;;-0.68;97.63
11053;BME280;55230;42.602;23.470;2023-02-14T00:27:16;94806.88;;;0.13;98.10
11053;BME280;55230;42.602;23.470;2023-02-14T00:29:44;94802.47;;;0.02;98.03
11053;BME280;55230;42.602;23.470;2023-02-14T00:32:11;94871.25;;;0.48;98.23
11053;BME280;55230;42.602;23.470;2023-02-14T00:34:39;94867.03;;;0.47;98.17
11053;BME280;55230;42.602;23.470;2023-02-14T00:37:06;94820.69;;;0.22;98.38
11053;BME280;55230;42.602;23.470;2023-02-14T00:39:33;94719.78;;;-0.42;98.51
11053;BME280;55230;42.602;23.470;2023-02-14T00:42:00;94828.72;;;0.26;98.47
11053;BME280;55230;42.602;23.470;2023-02-14T00:44:26;94857.13;;;0.63;98.13
11053;BME280;55230;42.602;23.470;2023-02-14T00:46:54;94853.06;;;0.69;97.54
11053;BME280;55230;42.602;23.470;2023-02-14T00:49:21;94671.50;;;-0.51;97.27
11053;BME280;55230;42.602;23.470;2023-02-14T00:51:48;94881.59;;;0.72;97.42
11053;BME280;55230;42.602;23.470;2023-02-14T00:54:15;94862.72;;;0.77;97.33
11053;BME280;55230;42.602;23.470;2023-02-14T00:56:41;94844.66;;;0.86;97.06
11053;BME280;55230;42.602;23.470;2023-02-14T00:59:08;94828.63;;;0.79;96.66
11053;BME280;55230;42.602;23.470;2023-02-14T01:01:35;94834.22;;;0.97;96.34
11053;BME280;55230;42.602;23.470;2023-02-14T01:04:04;94839.19;;;0.98;95.93
11053;BME280;55230;42.602;23.470;2023-02-14T01:06:30;94846.81;;;1.00;95.69
11053;BME280;55230;42.602;23.470;2023-02-14T01:08:57;94819.66;;;0.87;95.67
11053;BME280;55230;42.602;23.470;2023-02-14T01:11:25;94822.31;;;0.87;95.43
11053;BME280;55230;42.602;23.470;2023-02-14T01:13:53;94380.84;;;-2.14;95.14
11053;BME280;55230;42.602;23.470;2023-02-14T01:16:22;94781.69;;;0.64;95.30
11053;BME280;55230;42.602;23.470;2023-02-14T01:18:50;94858.91;;;0.97;95.30
11053;BME280;55230;42.602;23.470;2023-02-14T01:21:20;94807.94;;;0.69;94.81
11053;BME280;55230;42.602;23.470;2023-02-14T01:23:49;94838.03;;;0.96;94.92
11053;BME280;55230;42.602;23.470;2023-02-14T01:26:16;94821.13;;;0.85;94.72
11053;BME280;55230;42.602;23.470;2023-02-14T01:28:44;94810.69;;;0.95;94.53
11053;BME280;55230;42.602;23.470;2023-02-14T01:31:12;94634.34;;;-0.55;94.37
11053;BME280;55230;42.602;23.470;2023-02-14T01:33:40;94746.13;;;0.46;94.58
11053;BME280;55230;42.602;23.470;2023-02-14T01:36:14;94816.72;;;0.92;94.56
11053;BME280;55230;42.602;23.470;2023-02-14T01:38:42;94762.91;;;0.54;94.58
11053;BME280;55230;42.602;23.470;2023-02-14T01:41:09;94580.63;;;-0.55;94.51
11053;BME280;55230;42.602;23.470;2023-02-14T01:43:50;94810.56;;;0.88;94.39
11053;BME280;55230;42.602;23.470;2023-02-14T01:46:17;94623.31;;;-0.38;94.43
11053;BME280;55230;42.602;23.470;2023-02-14T01:48:44;94708.94;;;0.24;94.38
11053;BME280;55230;42.602;23.470;2023-02-14T01:51:12;94788.31;;;0.74;94.75
11053;BME280;55230;42.602;23.470;2023-02-14T01:53:40;94783.28;;;0.46;95.11
11053;BME280;55230;42.602;23.470;2023-02-14T01:56:10;94795.38;;;0.66;95.42
11053;BME280;55230;42.602;23.470;2023-02-14T01:58:40;94784.75;;;0.66;95.47
11053;BME280;55230;42.602;23.470;2023-02-14T02:01:15;94791.50;;;0.60;95.31
11053;BME280;55230;42.602;23.470;2023-02-14T02:03:46;94721.53;;;0.08;95.26
11053;BME280;55230;42.602;23.470;2023-02-14T02:06:16;94776.53;;;0.52;95.87
11053;BME280;55230;42.602;23.470;2023-02-14T02:08:49;94731.97;;;0.20;95.79
11053;BME280;55230;42.602;23.470;2023-02-14T02:11:19;94488.84;;;-1.43;95.75
11053;BME280;55230;42.602;23.470;2023-02-14T02:13:46;94787.56;;;0.54;96.06
11053;BME280;55230;42.602;23.470;2023-02-14T02:16:46;94785.78;;;0.58;95.91
11053;BME280;55230;42.602;23.470;2023-02-14T02:25:57;94795.88;;;0.72;95.38
11053;BME280;55230;42.602;23.470;2023-02-14T02:28:57;94776.50;;;0.71;94.84
11053;BME280;55230;42.602;23.470;2023-02-14T02:31:48;94685.00;;;0.20;94.74
11053;BME280;55230;42.602;23.470;2023-02-14T02:37:29;94748.97;;;0.79;94.59
11053;BME280;55230;42.602;23.470;2023-02-14T02:40:21;94744.41;;;0.80;94.85
11053;BME280;55230;42.602;23.470;2023-02-14T02:42:59;94751.63;;;0.79;95.00
11053;BME280;55230;42.602;23.470;2023-02-14T02:45:37;94640.13;;;-0.11;94.49
11053;BME280;55230;42.602;23.470;2023-02-14T02:48:34;94737.66;;;0.82;94.17
11053;BME280;55230;42.602;23.470;2023-02-14T02:51:05;94448.06;;;-1.04;94.11
11053;BME280;55230;42.602;23.470;2023-02-14T02:53:55;94608.72;;;-0.09;94.12
11053;BME280;55230;42.602;23.470;2023-02-14T02:56:28;94616.94;;;0.05;94.08
11053;BME280;55230;42.602;23.470;2023-02-14T02:59:16;94739.22;;;0.87;93.98
11053;BME280;55230;42.602;23.470;2023-02-14T03:01:48;94743.75;;;0.86;93.96
11053;BME280;55230;42.602;23.470;2023-02-14T03:04:17;94756.00;;;0.91;93.35
11053;BME280;55230;42.602;23.470;2023-02-14T03:07:02;94751.50;;;0.95;93.03
11053;BME280;55230;42.602;23.470;2023-02-14T03:09:53;94738.19;;;0.91;92.91
11053;BME280;55230;42.602;23.470;2023-02-14T03:15:45;94745.69;;;0.86;93.54
11053;BME280;55230;42.602;23.470;2023-02-14T03:18:29;94759.69;;;0.86;93.63
11053;BME280;55230;42.602;23.470;2023-02-14T03:21:07;94689.22;;;0.44;93.58
11053;BME280;55230;42.602;23.470;2023-02-14T03:23:38;94749.13;;;0.90;93.90
11053;BME280;55230;42.602;23.470;2023-02-14T03:26:17;94692.16;;;0.61;93.50
11053;BME280;55230;42.602;23.470;2023-02-14T03:28:50;94733.31;;;0.97;93.65
11053;BME280;55230;42.602;23.470;2023-02-14T03:31:21;94692.47;;;0.56;93.25
11053;BME280;55230;42.602;23.470;2023-02-14T03:33:53;94321.72;;;-1.90;93.01
11053;BME280;55230;42.602;23.470;2023-02-14T03:36:24;94177.47;;;-2.71;93.22
11053;BME280;55230;42.602;23.470;2023-02-14T03:38:55;94182.69;;;-2.75;93.88
11053;BME280;55230;42.602;23.470;2023-02-14T03:41:30;94723.00;;;0.69;94.68
11053;BME280;55230;42.602;23.470;2023-02-14T03:43:59;94519.16;;;-0.64;94.33
11053;BME280;55230;42.602;23.470;2023-02-14T03:46:31;94595.00;;;-0.15;94.12
11053;BME280;55230;42.602;23.470;2023-02-14T03:49:04;94678.13;;;0.38;94.08
11053;BME280;55230;42.602;23.470;2023-02-14T03:51:34;94680.66;;;0.09;94.14
11053;BME280;55230;42.602;23.470;2023-02-14T03:54:04;94660.44;;;0.23;94.49
11053;BME280;55230;42.602;23.470;2023-02-14T03:56:37;94727.81;;;0.60;94.72
11053;BME280;55230;42.602;23.470;2023-02-14T03:59:09;94147.78;;;-3.03;93.73
11053;BME280;55230;42.602;23.470;2023-02-14T04:01:47;94661.69;;;0.29;94.51
11053;BME280;55230;42.602;23.470;2023-02-14T04:04:19;94689.69;;;0.49;94.65
11053;BME280;55230;42.602;23.470;2023-02-14T04:06:46;94693.06;;;0.46;94.60
11053;BME280;55230;42.602;23.470;2023-02-14T04:09:13;94691.81;;;0.40;95.05
11053;BME280;55230;42.602;23.470;2023-02-14T04:11:41;94551.97;;;-0.69;94.86
11053;BME280;55230;42.602;23.470;2023-02-14T04:14:10;94690.16;;;0.32;95.09
11053;BME280;55230;42.602;23.470;2023-02-14T04:16:37;94691.25;;;0.31;95.42
11053;BME280;55230;42.602;23.470;2023-02-14T04:19:17;94599.56;;;-0.34;95.30
11053;BME280;55230;42.602;23.470;2023-02-14T04:21:50;94632.88;;;-0.14;95.44
11053;BME280;55230;42.602;23.470;2023-02-14T04:24:18;94700.34;;;0.30;95.25
11053;BME280;55230;42.602;23.470;2023-02-14T04:26:46;94640.97;;;-0.07;95.59
11053;BME280;55230;42.602;23.470;2023-02-14T04:29:34;94381.41;;;-1.70;94.80
11053;BME280;55230;42.602;23.470;2023-02-14T04:32:02;94693.09;;;0.27;95.10
11053;BME280;55230;42.602;23.470;2023-02-14T04:34:29;94711.66;;;0.27;95.60
11053;BME280;55230;42.602;23.470;2023-02-14T04:36:55;94671.00;;;0.00;94.95
11053;BME280;55230;42.602;23.470;2023-02-14T04:39:22;94660.41;;;0.00;95.24
11053;BME280;55230;42.602;23.470;2023-02-14T04:41:51;94699.50;;;0.26;95.12
11053;BME280;55230;42.602;23.470;2023-02-14T04:44:17;94638.47;;;-0.19;95.20
11053;BME280;55230;42.602;23.470;2023-02-14T04:46:44;94678.41;;;0.33;94.76
11053;BME280;55230;42.602;23.470;2023-02-14T04:49:11;94665.88;;;0.30;94.52
11053;BME280;55230;42.602;23.470;2023-02-14T04:51:38;94676.94;;;0.13;94.97
11053;BME280;55230;42.602;23.470;2023-02-14T04:54:04;94652.94;;;0.06;95.13
11053;BME280;55230;42.602;23.470;2023-02-14T04:56:31;94681.53;;;0.16;95.04
11053;BME280;55230;42.602;23.470;2023-02-14T04:58:59;94603.19;;;-0.23;95.26
11053;BME280;55230;42.602;23.470;2023-02-14T05:01:26;94618.56;;;-0.10;95.07
11053;BME280;55230;42.602;23.470;2023-02-14T05:03:53;94660.00;;;0.21;94.73
11053;BME280;55230;42.602;23.470;2023-02-14T05:06:20;94622.41;;;-0.07;94.54
11053;BME280;55230;42.602;23.470;2023-02-14T05:08:47;94679.16;;;0.11;94.66
11053;BME280;55230;42.602;23.470;2023-02-14T05:11:14;94674.41;;;0.20;94.78
11053;BME280;55230;42.602;23.470;2023-02-14T05:13:40;94676.69;;;0.22;94.62
11053;BME280;55230;42.602;23.470;2023-02-14T05:16:08;94389.41;;;-1.67;93.88
11053;BME280;55230;42.602;23.470;2023-02-14T05:18:35;94669.22;;;0.27;93.98
11053;BME280;55230;42.602;23.470;2023-02-14T05:21:02;94379.38;;;-1.58;93.62
11053;BME280;55230;42.602;23.470;2023-02-14T05:23:29;94630.94;;;0.06;94.13
11053;BME280;55230;42.602;23.470;2023-02-14T05:25:56;94672.38;;;0.33;93.81
11053;BME280;55230;42.602;23.470;2023-02-14T05:28:23;94660.25;;;0.35;93.78
11053;BME280;55230;42.602;23.470;2023-02-14T05:30:50;94579.09;;;-0.15;93.82
11053;BME280;55230;42.602;23.470;2023-02-14T05:33:18;94402.13;;;-1.34;93.59
11053;BME280;55230;42.602;23.470;2023-02-14T05:35:45;94654.53;;;0.33;93.26
11053;BME280;55230;42.602;23.470;2023-02-14T05:38:12;94623.47;;;0.11;92.98
11053;BME280;55230;42.602;23.470;2023-02-14T05:40:39;94671.84;;;0.46;93.21
11053;BME280;55230;42.602;23.470;2023-02-14T05:43:06;94636.25;;;0.28;92.64
11053;BME280;55230;42.602;23.470;2023-02-14T05:45:33;94659.50;;;0.57;92.24
11053;BME280;55230;42.602;23.470;2023-02-14T05:48:00;94665.31;;;0.66;91.90
11053;BME280;55230;42.602;23.470;2023-02-14T05:50:28;94660.75;;;0.63;91.70
11053;BME280;55230;42.602;23.470;2023-02-14T05:52:55;94664.56;;;0.66;91.64
11053;BME280;55230;42.602;23.470;2023-02-14T05:55:22;94655.19;;;0.49;91.65
11053;BME280;55230;42.602;23.470;2023-02-14T05:57:50;94647.06;;;0.61;91.24
11053;BME280;55230;42.602;23.470;2023-02-14T06:00:18;94673.09;;;0.78;91.17
11053;BME280;55230;42.602;23.470;2023-02-14T06:02:45;94607.31;;;0.42;90.56
11053;BME280;55230;42.602;23.470;2023-02-14T06:05:12;94631.13;;;0.61;90.63
11053;BME280;55230;42.602;23.470;2023-02-14T06:07:40;94728.63;;;0.87;90.84
11053;BME280;55230;42.602;23.470;2023-02-14T06:10:08;94580.44;;;0.21;90.34
11053;BME280;55230;42.602;23.470;2023-02-14T06:12:35;94661.66;;;0.74;90.31
11053;BME280;55230;42.602;23.470;2023-02-14T06:15:02;94679.53;;;1.00;90.44
11053;BME280;55230;42.602;23.470;2023-02-14T06:17:29;94684.53;;;1.05;90.11
11053;BME280;55230;42.602;23.470;2023-02-14T06:19:56;94690.25;;;1.07;89.98
11053;BME280;55230;42.602;23.470;2023-02-14T06:22:23;94615.22;;;0.61;90.05
11053;BME280;55230;42.602;23.470;2023-02-14T06:24:51;94567.59;;;0.23;90.51
11053;BME280;55230;42.602;23.470;2023-02-14T06:27:17;94565.59;;;0.39;89.55
11053;BME280;55230;42.602;23.470;2023-02-14T06:29:44;94683.13;;;1.14;89.86
11053;BME280;55230;42.602;23.470;2023-02-14T06:32:11;94678.97;;;1.13;89.61
11053;BME280;55230;42.602;23.470;2023-02-14T06:34:38;94644.13;;;0.92;89.34
11053;BME280;55230;42.602;23.470;2023-02-14T06:37:05;94659.13;;;1.07;89.42
11053;BME280;55230;42.602;23.470;2023-02-14T06:39:32;94679.66;;;1.37;89.61
11053;BME280;55230;42.602;23.470;2023-02-14T06:42:00;94677.00;;;1.37;90.06
11053;BME280;55230;42.602;23.470;2023-02-14T06:44:27;94563.75;;;0.69;89.59
11053;BME280;55230;42.602;23.470;2023-02-14T06:46:53;94433.78;;;-0.09;89.84
11053;BME280;55230;42.602;23.470;2023-02-14T06:49:20;94668.00;;;1.45;89.23
11053;BME280;55230;42.602;23.470;2023-02-14T06:51:48;94683.47;;;1.65;88.93
11053;BME280;55230;42.602;23.470;2023-02-14T06:54:14;94645.91;;;1.41;88.48
11053;BME280;55230;42.602;23.470;2023-02-14T06:56:41;94668.25;;;1.66;88.53
11053;BME280;55230;42.602;23.470;2023-02-14T06:59:10;94688.44;;;1.70;88.35
11053;BME280;55230;42.602;23.470;2023-02-14T07:01:36;94674.53;;;1.80;87.73
11053;BME280;55230;42.602;23.470;2023-02-14T07:04:03;94675.75;;;1.90;87.84
11053;BME280;55230;42.602;23.470;2023-02-14T07:06:30;94673.97;;;1.97;87.52
11053;BME280;55230;42.602;23.470;2023-02-14T07:08:57;94334.94;;;-0.10;87.31
11053;BME280;55230;42.602;23.470;2023-02-14T07:11:24;94600.09;;;1.51;86.93
11053;BME280;55230;42.602;23.470;2023-02-14T07:13:52;94657.94;;;1.94;87.91
11053;BME280;55230;42.602;23.470;2023-02-14T07:16:21;94687.53;;;1.89;87.80
11053;BME280;55230;42.602;23.470;2023-02-14T07:18:47;94650.78;;;1.98;87.09
11053;BME280;55230;42.602;23.470;2023-02-14T07:21:14;94599.25;;;1.76;87.25
11053;BME280;55230;42.602;23.470;2023-02-14T07:23:41;94645.63;;;2.12;87.39
11053;BME280;55230;42.602;23.470;2023-02-14T07:26:10;94456.22;;;0.79;86.92
11053;BME280;55230;42.602;23.470;2023-02-14T07:28:42;94618.75;;;1.87;88.01
11053;BME280;55230;42.602;23.470;2023-02-14T07:31:09;94614.53;;;1.83;88.28
11053;BME280;55230;42.602;23.470;2023-02-14T07:33:37;94678.75;;;2.18;87.93
11053;BME280;55230;42.602;23.470;2023-02-14T07:36:04;94679.00;;;2.06;88.64
11053;BME280;55230;42.602;23.470;2023-02-14T07:38:31;94617.19;;;1.83;89.73
11053;BME280;55230;42.602;23.470;2023-02-14T07:40:58;94660.38;;;2.06;90.27
11053;BME280;55230;42.602;23.470;2023-02-14T07:43:24;94602.25;;;1.71;90.61
11053;BME280;55230;42.602;23.470;2023-02-14T07:45:51;94641.91;;;1.87;90.93
11053;BME280;55230;42.602;23.470;2023-02-14T07:48:18;94627.09;;;1.53;91.81
11053;BME280;55230;42.602;23.470;2023-02-14T07:50:47;94628.94;;;1.49;93.00
11053;BME280;55230;42.602;23.470;2023-02-14T07:53:13;94217.50;;;-1.48;93.86
11053;BME280;55230;42.602;23.470;2023-02-14T07:55:40;94452.63;;;0.38;95.24
11053;BME280;55230;42.602;23.470;2023-02-14T07:58:07;94175.13;;;-1.51;95.56
11053;BME280;55230;42.602;23.470;2023-02-14T08:00:34;94678.03;;;1.58;97.66
11053;BME280;55230;42.602;23.470;2023-02-14T08:03:00;94333.09;;;-0.84;98.06
11053;BME280;55230;42.602;23.470;2023-02-14T08:05:27;94622.88;;;1.18;99.05
11053;BME280;55230;42.602;23.470;2023-02-14T08:07:55;94687.63;;;1.66;99.31
11053;BME280;55230;42.602;23.470;2023-02-14T08:10:22;94710.00;;;1.62;99.55
11053;BME280;55230;42.602;23.470;2023-02-14T08:12:49;94686.84;;;1.66;100.00
11053;BME280;55230;42.602;23.470;2023-02-14T08:15:24;94675.31;;;1.25;99.95
11053;BME280;55230;42.602;23.470;2023-02-14T08:18:15;94681.91;;;1.64;100.00
11053;BME280;55230;42.602;23.470;2023-02-14T08:20:42;94609.06;;;1.09;100.00
11053;BME280;55230;42.602;23.470;2023-02-14T08:23:10;94687.81;;;1.51;100.00
11053;BME280;55230;42.602;23.470;2023-02-14T08:25:37;94606.06;;;1.11;100.00
11053;BME280;55230;42.602;23.470;2023-02-14T08:28:05;94573.94;;;0.93;100.00
11053;BME280;55230;42.602;23.470;2023-02-14T08:30:32;94682.31;;;1.37;100.00
11053;BME280;55230;42.602;23.470;2023-02-14T08:32:58;94652.84;;;1.19;100.00
11053;BME280;55230;42.602;23.470;2023-02-14T08:35:25;94678.00;;;1.55;100.00
11053;BME280;55230;42.602;23.470;2023-02-14T08:37:52;94518.19;;;0.64;100.00
11053;BME280;55230;42.602;23.470;2023-02-14T08:40:20;94681.34;;;1.81;100.00
11053;BME280;55230;42.602;23.470;2023-02-14T08:42:47;94639.19;;;1.47;99.66
11053;BME280;55230;42.602;23.470;2023-02-14T08:45:14;94659.91;;;1.64;98.18
11053;BME280;55230;42.602;23.470;2023-02-14T08:47:40;94553.53;;;0.45;97.81
11053;BME280;55230;42.602;23.470;2023-02-14T08:50:09;94581.69;;;1.05;97.77
11053;BME280;55230;42.602;23.470;2023-02-14T08:52:38;94612.63;;;1.50;98.02
11053;BME280;55230;42.602;23.470;2023-02-14T08:55:05;94699.94;;;2.11;97.07
11053;BME280;55230;42.602;23.470;2023-02-14T08:57:33;94669.94;;;1.77;98.02
11053;BME280;55230;42.602;23.470;2023-02-14T09:00:00;94662.91;;;1.62;98.19
11053;BME280;55230;42.602;23.470;2023-02-14T09:02:27;94695.50;;;1.89;99.54
11053;BME280;55230;42.602;23.470;2023-02-14T09:04:53;94266.06;;;-1.37;99.22
11053;BME280;55230;42.602;23.470;2023-02-14T09:07:20;94675.75;;;1.57;100.00
11053;BME280;55230;42.602;23.470;2023-02-14T09:09:47;94718.16;;;1.76;100.00
11053;BME280;55230;42.602;23.470;2023-02-14T09:12:14;94355.94;;;-0.72;100.00
11053;BME280;55230;42.602;23.470;2023-02-14T09:14:43;94608.81;;;0.92;100.00
11053;BME280;55230;42.602;23.470;2023-02-14T09:17:10;94662.69;;;1.45;100.00
11053;BME280;55230;42.602;23.470;2023-02-14T09:19:37;94689.94;;;1.68;100.00
11053;BME280;55230;42.602;23.470;2023-02-14T09:22:06;94263.25;;;-1.25;100.00
11053;BME280;55230;42.602;23.470;2023-02-14T09:24:34;94599.13;;;1.33;100.00
11053;BME280;55230;42.602;23.470;2023-02-14T09:27:00;94638.88;;;1.52;100.00
11053;BME280;55230;42.602;23.470;2023-02-14T09:29:28;94585.63;;;1.15;100.00
11053;BME280;55230;42.602;23.470;2023-02-14T09:31:58;94678.97;;;1.73;100.00
11053;BME280;55230;42.602;23.470;2023-02-14T09:34:25;94261.03;;;-1.19;100.00
11053;BME280;55230;42.602;23.470;2023-02-14T09:36:52;94537.66;;;0.75;100.00
11053;BME280;55230;42.602;23.470;2023-02-14T09:39:19;94675.97;;;1.74;100.00
11053;BME280;55230;42.602;23.470;2023-02-14T09:44:38;94673.78;;;1.83;100.00
11053;BME280;55230;42.602;23.470;2023-02-14T09:47:19;94576.63;;;1.23;100.00
11053;BME280;55230;42.602;23.470;2023-02-14T09:49:48;94671.84;;;2.13;100.00
11053;BME280;55230;42.602;23.470;2023-02-14T09:52:17;94654.25;;;2.02;99.58
11053;BME280;55230;42.602;23.470;2023-02-14T09:54:48;94617.97;;;1.54;99.63
11053;BME280;55230;42.602;23.470;2023-02-14T09:57:22;94657.53;;;1.92;100.00
11053;BME280;55230;42.602;23.470;2023-02-14T09:59:54;94640.84;;;1.58;100.00
11053;BME280;55230;42.602;23.470;2023-02-14T10:02:38;94662.53;;;1.97;100.00
11053;BME280;55230;42.602;23.470;2023-02-14T10:05:12;94584.53;;;1.49;99.07
11053;BME280;55230;42.602;23.470;2023-02-14T10:07:52;94673.75;;;2.13;97.72
11053;BME280;55230;42.602;23.470;2023-02-14T10:10:25;94577.56;;;1.38;98.04
11053;BME280;55230;42.602;23.470;2023-02-14T10:13:00;94666.25;;;1.89;97.67
11053;BME280;55230;42.602;23.470;2023-02-14T10:15:32;94656.06;;;1.94;97.74
11053;BME280;55230;42.602;23.470;2023-02-14T10:18:05;94660.09;;;1.81;98.64
11053;BME280;55230;42.602;23.470;2023-02-14T10:20:37;94601.41;;;1.64;97.95
11053;BME280;55230;42.602;23.470;2023-02-14T10:23:16;94095.34;;;-1.57;97.10
11053;BME280;55230;42.602;23.470;2023-02-14T10:25:48;94592.53;;;1.86;96.34
11053;BME280;55230;42.602;23.470;2023-02-14T10:28:24;94596.97;;;2.11;95.58
11053;BME280;55230;42.602;23.470;2023-02-14T10:31:18;94644.63;;;2.27;95.62
11053;BME280;55230;42.602;23.470;2023-02-14T10:33:52;94622.69;;;2.00;95.60
11053;BME280;55230;42.602;23.470;2023-02-14T10:36:40;94589.34;;;1.73;97.18
11053;BME280;55230;42.602;23.470;2023-02-14T10:39:24;94636.75;;;2.01;98.02
11053;BME280;55230;42.602;23.470;2023-02-14T10:41:55;94642.97;;;2.12;98.48
11053;BME280;55230;42.602;23.470;2023-02-14T10:44:40;94573.28;;;1.63;96.52
11053;BME280;55230;42.602;23.470;2023-02-14T10:47:22;94301.06;;;-0.23;96.17
11053;BME280;55230;42.602;23.470;2023-02-14T10:49:57;94611.22;;;1.60;97.12
11053;BME280;55230;42.602;23.470;2023-02-14T10:52:33;94619.66;;;1.65;97.11
11053;BME280;55230;42.602;23.470;2023-02-14T10:55:10;94537.03;;;1.14;97.17
11053;BME280;55230;42.602;23.470;2023-02-14T10:57:41;94648.06;;;1.91;97.49
11053;BME280;55230;42.602;23.470;2023-02-14T11:00:17;94637.75;;;1.86;97.53
11053;BME280;55230;42.602;23.470;2023-02-14T11:02:46;94626.69;;;1.84;97.72
11053;BME280;55230;42.602;23.470;2023-02-14T11:05:24;94628.13;;;1.74;96.92
11053;BME280;55230;42.602;23.470;2023-02-14T11:07:51;94625.81;;;1.73;97.99
11053;BME280;55230;42.602;23.470;2023-02-14T11:10:19;94523.34;;;0.83;98.57
11053;BME280;55230;42.602;23.470;2023-02-14T11:12:49;94637.81;;;1.60;99.05
11053;BME280;55230;42.602;23.470;2023-02-14T11:15:25;94633.13;;;1.50;99.46
11053;BME280;55230;42.602;23.470;2023-02-14T11:18:16;94631.84;;;1.70;100.00
11053;BME280;55230;42.602;23.470;2023-02-14T11:20:58;94635.66;;;1.69;98.89
11053;BME280;55230;42.602;23.470;2023-02-14T11:23:25;94636.66;;;1.61;98.21
11053;BME280;55230;42.602;23.470;2023-02-14T11:25:54;94622.69;;;1.64;98.28
11053;BME280;55230;42.602;23.470;2023-02-14T11:28:21;94629.28;;;1.77;97.92
11053;BME280;55230;42.602;23.470;2023-02-14T11:30:49;94628.94;;;1.82;97.78
11053;BME280;55230;42.602;23.470;2023-02-14T11:33:33;94612.78;;;1.64;96.51
11053;BME280;55230;42.602;23.470;2023-02-14T11:36:04;94602.28;;;1.75;96.66
11053;BME280;55230;42.602;23.470;2023-02-14T11:38:35;94585.44;;;1.60;97.13
11053;BME280;55230;42.602;23.470;2023-02-14T11:41:06;94618.72;;;1.84;95.97
11053;BME280;55230;42.602;23.470;2023-02-14T11:43:36;94604.28;;;1.85;96.43
11053;BME280;55230;42.602;23.470;2023-02-14T11:46:06;94458.41;;;1.06;95.52
11053;BME280;55230;42.602;23.470;2023-02-14T11:48:33;94600.91;;;1.88;94.23
11053;BME280;55230;42.602;23.470;2023-02-14T11:51:04;94640.34;;;1.82;95.00
11053;BME280;55230;42.602;23.470;2023-02-14T11:53:42;94601.66;;;1.88;94.34
11053;BME280;55230;42.602;23.470;2023-02-14T11:56:10;94610.88;;;1.98;93.78
11053;BME280;55230;42.602;23.470;2023-02-14T11:58:40;94497.69;;;1.24;93.08
11053;BME280;55230;42.602;23.470;2023-02-14T12:01:11;94580.47;;;1.95;91.28
11053;BME280;55230;42.602;23.470;2023-02-14T12:03:44;94580.66;;;2.16;91.12
11053;BME280;55230;42.602;23.470;2023-02-14T12:06:22;94534.78;;;1.83;90.62
11053;BME280;55230;42.602;23.470;2023-02-14T12:08:49;94256.09;;;0.14;89.83
11053;BME280;55230;42.602;23.470;2023-02-14T12:11:18;94562.75;;;2.10;89.36
11053;BME280;55230;42.602;23.470;2023-02-14T12:13:50;94557.53;;;2.20;89.05
11053;BME280;55230;42.602;23.470;2023-02-14T12:16:21;94557.97;;;2.26;88.15
11053;BME280;55230;42.602;23.470;2023-02-14T12:18:53;94556.72;;;2.16;88.67
11053;BME280;55230;42.602;23.470;2023-02-14T12:24:17;94570.50;;;2.25;88.53
11053;BME280;55230;42.602;23.470;2023-02-14T12:26:53;94507.03;;;1.84;88.81
11053;BME280;55230;42.602;23.470;2023-02-14T12:29:25;94557.88;;;2.15;88.52
11053;BME280;55230;42.602;23.470;2023-02-14T12:32:09;94558.59;;;2.16;88.75
11053;BME280;55230;42.602;23.470;2023-02-14T12:34:37;94451.97;;;1.44;89.22
11053;BME280;55230;42.602;23.470;2023-02-14T12:37:12;94494.44;;;1.77;89.33
11053;BME280;55230;42.602;23.470;2023-02-14T12:39:52;94516.94;;;1.87;89.50
11053;BME280;55230;42.602;23.470;2023-02-14T12:42:39;94555.03;;;2.45;88.46
11053;BME280;55230;42.602;23.470;2023-02-14T12:45:13;94529.81;;;2.25;88.86
11053;BME280;55230;42.602;23.470;2023-02-14T12:47:50;94468.38;;;1.97;88.06
11053;BME280;55230;42.602;23.470;2023-02-14T12:50:28;94548.56;;;2.43;88.38
11053;BME280;55230;42.602;23.470;2023-02-14T12:53:14;94460.63;;;1.78;88.11
11053;BME280;55230;42.602;23.470;2023-02-14T12:55:57;94486.22;;;1.93;88.21
11053;BME280;55230;42.602;23.470;2023-02-14T12:58:39;94453.09;;;1.40;88.29
11053;BME280;55230;42.602;23.470;2023-02-14T13:01:35;94468.06;;;2.02;88.16
11053;BME280;55230;42.602;23.470;2023-02-14T13:07:11;94401.66;;;1.62;87.42
11053;BME280;55230;42.602;23.470;2023-02-14T13:09:48;94416.72;;;1.51;87.60
11053;BME280;55230;42.602;23.470;2023-02-14T13:12:30;94542.91;;;2.48;88.27
11053;BME280;55230;42.602;23.470;2023-02-14T13:15:10;94535.06;;;2.69;88.14
11053;BME280;55230;42.602;23.470;2023-02-14T13:17:41;94507.94;;;2.53;87.50
11053;BME280;55230;42.602;23.470;2023-02-14T13:20:29;94416.94;;;1.75;87.97
11053;BME280;55230;42.602;23.470;2023-02-14T13:23:02;94492.91;;;2.20;89.08
11053;BME280;55230;42.602;23.470;2023-02-14T13:25:35;94535.75;;;2.55;88.10
11053;BME280;55230;42.602;23.470;2023-02-14T13:28:11;94333.38;;;1.22;89.28
11053;BME280;55230;42.602;23.470;2023-02-14T13:30:38;94449.38;;;1.91;89.46
11053;BME280;55230;42.602;23.470;2023-02-14T13:33:22;94304.22;;;0.89;90.08
11053;BME280;55230;42.602;23.470;2023-02-14T13:35:49;94329.91;;;1.18;90.16
11053;BME280;55230;42.602;23.470;2023-02-14T13:38:17;94547.09;;;2.49;90.83